Time;durP1;ratioP1;P1;durP2;ratioP2;P2;SDS_P1;SDS_P2;PMS_P1;PMS_P2;Temp;Humidity;BMP_temperature;BMP_pressure;BME280_temperature;BME280_humidity;BME280_pressure;Samples;Min_cycle;Max_cycle;Signal;HPM_P1;HPM_P2
2022/01/17 00:00:30;;;;;;;12.63;6.27;;;;;;;;;;2065085;28;20174;-58
2022/01/17 00:01:31;;;;;;;15.63;6.33;;;;;;;;;;2065176;28;20229;-59
2022/01/17 00:02:31;;;;;;;9.27;5.73;;;;;;;;;;2065200;28;20181;-60
2022/01/17 00:03:31;;;;;;;20.07;6.70;;;;;;;;;;2065035;28;20197;-59
2022/01/17 00:04:32;;;;;;;10.30;6.07;;;;;;;;;;2072368;28;20280;-61
2022/01/17 00:05:32;;;;;;;15.70;6.27;;;;;;;;;;2068986;28;20209;-60
2022/01/17 00:06:32;;;;;;;14.97;5.60;;;;;;;;;;2063970;28;20177;-60
2022/01/17 00:07:33;;;;;;;11.27;6.43;;;;;;;;;;2056362;28;20186;-59
2022/01/17 00:08:33;;;;;;;11.50;5.93;;;;;;;;;;2065662;28;20260;-60
2022/01/17 00:09:33;;;;;;;9.17;4.73;;;;;;;;;;2065327;28;20191;-59
2022/01/17 00:10:34;;;;;;;8.20;5.60;;;;;;;;;;2060288;28;20197;-61
2022/01/17 00:11:35;;;;;;;9.07;4.73;;;;;;;;;;2064600;28;20197;-57
2022/01/17 00:12:38;;;;;;;8.30;4.40;;;;;;;;;;2065498;28;20240;-59
2022/01/17 00:13:39;;;;;;;9.80;4.83;;;;;;;;;;2063614;28;20170;-60
2022/01/17 00:14:41;;;;;;;10.03;4.17;;;;;;;;;;2065433;28;20679;-60
2022/01/17 00:15:47;;;;;;;7.43;3.67;;;;;;;;;;2065526;28;20185;-59
2022/01/17 00:17:06;;;;;;;7.47;4.03;;;;;;;;;;2065456;28;20169;-59
2022/01/17 00:20:26;;;;;;;5.70;3.60;;;;;;;;;;2063790;28;20223;-59
2022/01/17 00:21:26;;;;;;;4.13;3.17;;;;;;;;;;2061387;28;20665;-61
2022/01/17 00:22:27;;;;;;;11.73;3.63;;;;;;;;;;2063517;28;20187;-58
2022/01/17 00:23:27;;;;;;;8.17;4.37;;;;;;;;;;2064842;28;20364;-58
2022/01/17 00:24:27;;;;;;;11.33;3.97;;;;;;;;;;2065231;28;20224;-60
2022/01/17 00:25:28;;;;;;;6.87;4.43;;;;;;;;;;2064743;28;20603;-59
2022/01/17 00:26:28;;;;;;;5.53;4.03;;;;;;;;;;2064841;28;20186;-59
2022/01/17 00:27:28;;;;;;;8.70;3.87;;;;;;;;;;2065247;28;20177;-58
2022/01/17 00:28:28;;;;;;;5.77;3.90;;;;;;;;;;2065660;28;20193;-59
2022/01/17 00:29:29;;;;;;;3.93;3.10;;;;;;;;;;2059136;28;20175;-61
2022/01/17 00:30:30;;;;;;;6.70;3.97;;;;;;;;;;2065723;28;20201;-58
2022/01/17 00:31:31;;;;;;;7.30;4.03;;;;;;;;;;2064994;28;20178;-59
2022/01/17 00:32:31;;;;;;;13.57;3.47;;;;;;;;;;2065417;28;20733;-60
2022/01/17 00:33:32;;;;;;;6.00;3.20;;;;;;;;;;2064745;28;20198;-58
2022/01/17 00:34:32;;;;;;;8.03;3.80;;;;;;;;;;2064440;28;20208;-59
2022/01/17 00:35:32;;;;;;;10.27;3.80;;;;;;;;;;2065321;28;20178;-56
2022/01/17 00:36:32;;;;;;;6.27;3.23;;;;;;;;;;2065398;28;20173;-57
2022/01/17 00:37:33;;;;;;;6.83;3.20;;;;;;;;;;2065728;28;20709;-53
2022/01/17 00:38:33;;;;;;;7.47;3.20;;;;;;;;;;2064360;28;20232;-53
2022/01/17 00:39:33;;;;;;;7.53;3.60;;;;;;;;;;2065004;28;20185;-53
2022/01/17 00:40:33;;;;;;;10.53;3.70;;;;;;;;;;2064263;28;20216;-57
2022/01/17 00:41:35;;;;;;;10.33;3.50;;;;;;;;;;2064973;28;20178;-57
2022/01/17 00:42:35;;;;;;;6.97;4.10;;;;;;;;;;2064744;28;20178;-55
2022/01/17 00:43:35;;;;;;;7.53;3.73;;;;;;;;;;2063958;28;20189;-53
2022/01/17 00:44:39;;;;;;;6.40;2.63;;;;;;;;;;2064143;28;20301;-59
2022/01/17 00:45:43;;;;;;;9.27;3.17;;;;;;;;;;2074784;23;20226;-59
2022/01/17 00:46:43;;;;;;;6.43;3.10;;;;;;;;;;2050392;28;20171;-57
2022/01/17 00:47:44;;;;;;;5.23;2.83;;;;;;;;;;2054198;28;20309;-60
2022/01/17 00:48:44;;;;;;;8.10;3.00;;;;;;;;;;2056599;28;20170;-61
2022/01/17 00:49:44;;;;;;;8.00;3.00;;;;;;;;;;2055338;28;20548;-60
2022/01/17 00:50:47;;;;;;;6.43;3.20;;;;;;;;;;2056348;28;20180;-59
2022/01/17 00:51:47;;;;;;;7.90;3.20;;;;;;;;;;2052724;28;20303;-61
2022/01/17 00:52:48;;;;;;;10.87;3.17;;;;;;;;;;2057030;28;20288;-59
2022/01/17 00:53:48;;;;;;;7.63;3.13;;;;;;;;;;2051907;28;20605;-62
2022/01/17 00:54:48;;;;;;;7.20;2.90;;;;;;;;;;2056846;28;20186;-58
2022/01/17 00:55:48;;;;;;;5.60;2.67;;;;;;;;;;2058144;28;20233;-58
2022/01/17 00:56:49;;;;;;;8.03;2.90;;;;;;;;;;2063980;28;20182;-60
2022/01/17 00:57:49;;;;;;;6.83;3.07;;;;;;;;;;2054412;28;20183;-60
2022/01/17 00:58:50;;;;;;;9.87;3.57;;;;;;;;;;2063226;28;20255;-60
2022/01/17 00:59:50;;;;;;;8.33;3.10;;;;;;;;;;2051143;28;20262;-57
2022/01/17 01:00:50;;;;;;;7.17;3.23;;;;;;;;;;2057339;28;20198;-60
2022/01/17 01:01:50;;;;;;;6.80;3.07;;;;;;;;;;2054424;28;20182;-59
2022/01/17 01:02:51;;;;;;;6.53;3.20;;;;;;;;;;2054308;28;20234;-58
2022/01/17 01:03:51;;;;;;;8.80;3.20;;;;;;;;;;2054396;28;20181;-60
2022/01/17 01:04:51;;;;;;;6.30;3.10;;;;;;;;;;2050685;28;20599;-60
2022/01/17 01:05:52;;;;;;;7.63;3.50;;;;;;;;;;2057936;28;20182;-61
2022/01/17 01:06:52;;;;;;;9.70;3.37;;;;;;;;;;2062728;28;20184;-60
2022/01/17 01:07:54;;;;;;;6.73;2.70;;;;;;;;;;2059622;28;20583;-59
2022/01/17 01:08:54;;;;;;;7.30;2.83;;;;;;;;;;2063437;28;20232;-59
2022/01/17 01:10:05;;;;;;;7.27;3.00;;;;;;;;;;2059997;28;20182;-59
2022/01/17 01:11:05;;;;;;;5.80;2.40;;;;;;;;;;2060828;28;20262;-58
2022/01/17 01:12:06;;;;;;;8.00;3.10;;;;;;;;;;2055990;28;20193;-60
2022/01/17 01:13:06;;;;;;;6.53;2.87;;;;;;;;;;2055934;28;20186;-59
2022/01/17 01:14:06;;;;;;;5.87;3.27;;;;;;;;;;2060258;28;20173;-61
2022/01/17 01:15:12;;;;;;;10.53;2.93;;;;;;;;;;2060675;28;20261;-62
2022/01/17 01:17:31;;;;;;;9.43;3.03;;;;;;;;;;2059740;28;20685;-58
2022/01/17 01:19:40;;;;;;;9.27;3.37;;;;;;;;;;2059877;28;20173;-61
2022/01/17 01:27:59;;;;;;;7.87;2.70;;;;;;;;;;2061539;28;20170;-57
2022/01/17 01:28:59;;;;;;;4.57;2.20;;;;;;;;;;2056333;28;20175;-58
2022/01/17 01:30:01;;;;;;;4.10;3.17;;;;;;;;;;2055991;28;20245;-58
2022/01/17 01:31:03;;;;;;;8.20;3.07;;;;;;;;;;2055891;28;20653;-58
2022/01/17 01:32:07;;;;;;;7.10;2.63;;;;;;;;;;2057433;28;20243;-59
2022/01/17 01:33:08;;;;;;;6.97;2.43;;;;;;;;;;2056922;28;20167;-59
2022/01/17 01:34:09;;;;;;;8.63;2.90;;;;;;;;;;2057028;28;20212;-58
2022/01/17 01:35:12;;;;;;;7.90;2.40;;;;;;;;;;2055829;28;20198;-55
2022/01/17 01:36:19;;;;;;;7.37;2.10;;;;;;;;;;2062727;28;20277;-61
2022/01/17 01:37:19;;;;;;;4.27;2.97;;;;;;;;;;2056524;28;20185;-61
2022/01/17 01:38:19;;;;;;;8.03;2.80;;;;;;;;;;2060755;28;20546;-59
2022/01/17 01:39:24;;;;;;;6.97;2.47;;;;;;;;;;2059314;28;20537;-58
2022/01/17 01:40:24;;;;;;;9.83;2.97;;;;;;;;;;2052983;28;20233;-60
2022/01/17 01:41:24;;;;;;;3.80;2.27;;;;;;;;;;2055169;28;20647;-59
2022/01/17 01:42:28;;;;;;;9.63;2.90;;;;;;;;;;2058058;28;20638;-58
2022/01/17 01:43:28;;;;;;;9.93;2.73;;;;;;;;;;2063740;28;20248;-61
2022/01/17 01:44:29;;;;;;;8.37;2.67;;;;;;;;;;2057213;28;20182;-60
2022/01/17 01:45:29;;;;;;;6.63;3.00;;;;;;;;;;2055789;28;20210;-61
2022/01/17 01:46:29;;;;;;;7.90;2.73;;;;;;;;;;2056346;28;20170;-59
2022/01/17 01:47:30;;;;;;;12.00;3.27;;;;;;;;;;2056501;28;20687;-60
2022/01/17 01:48:31;;;;;;;11.07;2.80;;;;;;;;;;2064492;28;20189;-58
2022/01/17 01:49:32;;;;;;;9.73;2.53;;;;;;;;;;2064760;28;20189;-57
2022/01/17 01:50:32;;;;;;;7.13;2.10;;;;;;;;;;2056653;28;20201;-59
2022/01/17 01:51:32;;;;;;;6.37;2.37;;;;;;;;;;2053342;28;20167;-60
2022/01/17 01:52:33;;;;;;;9.70;2.67;;;;;;;;;;2055923;28;20721;-56
2022/01/17 01:53:33;;;;;;;7.73;3.00;;;;;;;;;;2062417;28;20181;-59
2022/01/17 01:54:33;;;;;;;9.83;3.10;;;;;;;;;;2054971;28;20174;-57
2022/01/17 01:55:33;;;;;;;9.63;3.00;;;;;;;;;;2055538;28;20341;-60
2022/01/17 01:56:38;;;;;;;6.73;2.80;;;;;;;;;;2063629;28;20196;-59
2022/01/17 01:57:40;;;;;;;5.83;2.57;;;;;;;;;;2054871;28;20179;-57
2022/01/17 01:58:40;;;;;;;6.90;2.40;;;;;;;;;;2056907;28;20635;-59
2022/01/17 01:59:40;;;;;;;11.67;3.20;;;;;;;;;;2056489;28;20196;-58
2022/01/17 02:00:41;;;;;;;5.57;2.73;;;;;;;;;;2056171;28;20228;-59
2022/01/17 02:01:41;;;;;;;7.13;2.40;;;;;;;;;;2063921;28;20185;-58
2022/01/17 02:02:41;;;;;;;8.53;3.17;;;;;;;;;;2056740;28;20185;-59
2022/01/17 02:03:42;;;;;;;10.13;2.90;;;;;;;;;;2064469;28;20566;-57
2022/01/17 02:04:43;;;;;;;7.50;2.83;;;;;;;;;;2050318;28;20614;-60
2022/01/17 02:05:44;;;;;;;13.23;3.07;;;;;;;;;;2059667;28;20278;-58
2022/01/17 02:06:44;;;;;;;6.93;2.90;;;;;;;;;;2063522;28;20177;-58
2022/01/17 02:07:45;;;;;;;7.67;2.57;;;;;;;;;;2055896;28;20198;-58
2022/01/17 02:08:45;;;;;;;6.23;3.00;;;;;;;;;;2050216;28;20258;-59
2022/01/17 02:09:46;;;;;;;7.93;3.00;;;;;;;;;;2056571;28;20182;-61
2022/01/17 02:10:46;;;;;;;11.77;3.20;;;;;;;;;;2056211;28;20174;-58
2022/01/17 02:11:47;;;;;;;11.13;3.47;;;;;;;;;;2044920;28;20556;-59
2022/01/17 02:12:47;;;;;;;7.27;2.53;;;;;;;;;;2062111;28;20209;-56
2022/01/17 02:13:47;;;;;;;6.37;3.10;;;;;;;;;;2057078;28;20568;-59
2022/01/17 02:14:48;;;;;;;8.47;3.53;;;;;;;;;;2058485;28;20174;-59
2022/01/17 02:15:49;;;;;;;9.10;3.17;;;;;;;;;;2061212;28;20638;-59
2022/01/17 02:16:51;;;;;;;6.67;2.70;;;;;;;;;;2064793;28;20250;-57
2022/01/17 02:17:55;;;;;;;7.23;3.37;;;;;;;;;;2062345;28;20169;-60
2022/01/17 02:18:56;;;;;;;8.77;2.90;;;;;;;;;;2056401;28;20198;-58
2022/01/17 02:20:08;;;;;;;6.50;2.77;;;;;;;;;;2058595;28;20197;-63
2022/01/17 02:22:15;;;;;;;10.13;3.23;;;;;;;;;;2058154;28;20639;-59
2022/01/17 02:23:15;;;;;;;5.60;2.60;;;;;;;;;;2057004;28;20191;-58
2022/01/17 02:24:20;;;;;;;6.37;2.77;;;;;;;;;;2055721;28;20178;-58
2022/01/17 02:25:20;;;;;;;10.60;2.77;;;;;;;;;;2055405;28;20706;-62
2022/01/17 02:26:21;;;;;;;15.40;2.83;;;;;;;;;;2056253;28;20179;-59
2022/01/17 02:27:21;;;;;;;12.47;4.07;;;;;;;;;;2056551;28;20178;-57
2022/01/17 02:28:21;;;;;;;8.57;3.57;;;;;;;;;;2056769;28;20220;-59
2022/01/17 02:29:21;;;;;;;10.93;3.33;;;;;;;;;;2063259;28;20651;-57
2022/01/17 02:30:23;;;;;;;8.83;3.30;;;;;;;;;;2058511;28;20607;-60
2022/01/17 02:31:24;;;;;;;5.90;2.87;;;;;;;;;;2056650;28;20174;-60
2022/01/17 02:32:24;;;;;;;7.23;3.00;;;;;;;;;;2056719;28;20202;-60
2022/01/17 02:33:24;;;;;;;6.77;2.70;;;;;;;;;;2056356;28;20301;-59
2022/01/17 02:34:24;;;;;;;14.63;3.90;;;;;;;;;;2057019;28;20170;-57
2022/01/17 02:35:25;;;;;;;6.80;3.83;;;;;;;;;;2056997;28;20688;-58
2022/01/17 02:36:25;;;;;;;7.10;3.50;;;;;;;;;;2055716;28;20178;-59
2022/01/17 02:37:25;;;;;;;10.23;3.50;;;;;;;;;;2063201;28;20521;-61
2022/01/17 02:38:26;;;;;;;6.40;2.77;;;;;;;;;;2057264;28;20555;-60
2022/01/17 02:39:26;;;;;;;8.77;3.13;;;;;;;;;;2056669;28;20182;-58
2022/01/17 02:40:26;;;;;;;5.27;2.63;;;;;;;;;;2056136;28;20191;-58
2022/01/17 02:41:27;;;;;;;12.63;4.20;;;;;;;;;;2063669;28;20201;-57
2022/01/17 02:42:28;;;;;;;5.20;2.63;;;;;;;;;;2062696;28;20178;-61
2022/01/17 02:43:30;;;;;;;3.57;2.60;;;;;;;;;;2056964;28;20170;-58
2022/01/17 02:44:31;;;;;;;8.03;2.77;;;;;;;;;;2056263;28;20174;-59
2022/01/17 02:45:34;;;;;;;5.80;3.23;;;;;;;;;;2052996;28;20956;-55
2022/01/17 02:46:34;;;;;;;4.37;2.90;;;;;;;;;;2057218;28;20178;-56
2022/01/17 02:47:35;;;;;;;10.63;2.90;;;;;;;;;;2065343;28;20551;-60
2022/01/17 02:48:35;;;;;;;7.63;3.07;;;;;;;;;;2056106;28;20162;-57
2022/01/17 02:49:36;;;;;;;8.27;2.70;;;;;;;;;;2056470;28;20269;-58
2022/01/17 02:50:36;;;;;;;10.73;2.80;;;;;;;;;;2056519;28;20682;-59
2022/01/17 02:51:36;;;;;;;5.60;2.97;;;;;;;;;;2049610;28;20781;-62
2022/01/17 02:52:37;;;;;;;10.20;2.60;;;;;;;;;;2067930;28;20213;-60
2022/01/17 02:53:40;;;;;;;8.23;2.83;;;;;;;;;;2062539;28;20170;-61
2022/01/17 02:54:40;;;;;;;8.60;3.40;;;;;;;;;;2064450;28;20179;-60
2022/01/17 02:55:49;;;;;;;6.00;2.80;;;;;;;;;;2061469;28;20674;-57
2022/01/17 02:56:50;;;;;;;12.03;3.20;;;;;;;;;;2061169;28;20246;-59
2022/01/17 02:57:50;;;;;;;7.70;2.80;;;;;;;;;;2065406;28;20555;-59
2022/01/17 02:58:50;;;;;;;10.90;3.13;;;;;;;;;;2061969;28;20167;-58
2022/01/17 02:59:50;;;;;;;9.13;3.20;;;;;;;;;;2061292;28;20209;-58
2022/01/17 03:00:52;;;;;;;6.13;3.00;;;;;;;;;;2064137;28;20253;-56
2022/01/17 03:01:52;;;;;;;10.60;3.33;;;;;;;;;;2068173;28;20166;-61
2022/01/17 03:02:53;;;;;;;8.07;3.10;;;;;;;;;;2066208;28;20252;-58
2022/01/17 03:03:54;;;;;;;5.80;2.47;;;;;;;;;;2070217;28;20201;-57
2022/01/17 03:04:54;;;;;;;11.50;3.13;;;;;;;;;;2064075;28;20178;-58
2022/01/17 03:05:56;;;;;;;6.90;2.93;;;;;;;;;;2057901;28;20171;-59
2022/01/17 03:06:56;;;;;;;5.93;2.87;;;;;;;;;;2049293;28;20183;-59
2022/01/17 03:07:56;;;;;;;13.20;3.50;;;;;;;;;;2059749;28;20196;-60
2022/01/17 03:08:56;;;;;;;7.03;2.90;;;;;;;;;;2063885;28;20185;-53
2022/01/17 03:10:05;;;;;;;6.60;2.40;;;;;;;;;;2059841;28;20601;-58
2022/01/17 03:11:06;;;;;;;7.93;2.67;;;;;;;;;;2060538;28;20646;-61
2022/01/17 03:12:07;;;;;;;8.10;3.43;;;;;;;;;;2058281;28;20182;-61
2022/01/17 03:13:10;;;;;;;8.47;3.00;;;;;;;;;;2058456;28;20699;-59
2022/01/17 03:14:10;;;;;;;6.43;2.60;;;;;;;;;;2062124;28;20227;-61
2022/01/17 03:15:12;;;;;;;7.73;2.90;;;;;;;;;;2061149;28;20209;-59
2022/01/17 03:16:15;;;;;;;8.50;2.57;;;;;;;;;;2062335;28;20220;-61
2022/01/17 03:17:15;;;;;;;8.27;2.80;;;;;;;;;;2060524;28;20635;-59
2022/01/17 03:18:15;;;;;;;8.53;2.70;;;;;;;;;;2057925;28;20258;-61
2022/01/17 03:19:15;;;;;;;6.60;2.63;;;;;;;;;;2062915;28;20263;-59
2022/01/17 03:20:16;;;;;;;10.57;3.63;;;;;;;;;;2056059;28;20552;-60
2022/01/17 03:21:17;;;;;;;11.40;2.70;;;;;;;;;;2063005;28;20208;-60
2022/01/17 03:22:17;;;;;;;7.70;3.03;;;;;;;;;;2062888;28;20174;-60
2022/01/17 03:23:18;;;;;;;9.00;3.10;;;;;;;;;;2058221;28;20178;-61
2022/01/17 03:24:18;;;;;;;7.40;2.90;;;;;;;;;;2062650;28;20761;-61
2022/01/17 03:25:18;;;;;;;7.43;2.57;;;;;;;;;;2060435;28;20228;-58
2022/01/17 03:26:18;;;;;;;7.40;2.37;;;;;;;;;;2062636;28;20265;-61
2022/01/17 03:27:18;;;;;;;6.17;2.90;;;;;;;;;;2060117;28;20174;-60
2022/01/17 03:28:20;;;;;;;8.27;2.80;;;;;;;;;;2061053;28;20188;-59
2022/01/17 03:29:20;;;;;;;8.53;2.80;;;;;;;;;;2063780;28;20575;-58
2022/01/17 03:30:22;;;;;;;3.30;2.83;;;;;;;;;;2055401;28;20186;-60
2022/01/17 03:31:22;;;;;;;3.93;2.20;;;;;;;;;;2057243;28;20224;-59
2022/01/17 03:32:22;;;;;;;9.60;3.33;;;;;;;;;;2055527;28;20229;-58
2022/01/17 03:33:23;;;;;;;8.13;2.93;;;;;;;;;;2062971;28;20173;-59
2022/01/17 03:34:23;;;;;;;6.50;3.43;;;;;;;;;;2064017;28;20174;-58
2022/01/17 03:35:23;;;;;;;7.73;2.80;;;;;;;;;;2058235;28;20201;-59
2022/01/17 03:36:24;;;;;;;8.93;3.67;;;;;;;;;;2062682;28;20197;-60
2022/01/17 03:37:24;;;;;;;7.63;2.57;;;;;;;;;;2058776;28;20569;-61
2022/01/17 03:38:25;;;;;;;9.47;3.23;;;;;;;;;;2057362;28;20222;-62
2022/01/17 03:39:26;;;;;;;9.53;3.40;;;;;;;;;;2057369;28;20214;-61
2022/01/17 03:40:26;;;;;;;8.57;3.33;;;;;;;;;;2061612;28;20174;-61
2022/01/17 03:41:26;;;;;;;9.17;3.13;;;;;;;;;;2057962;28;20178;-59
2022/01/17 03:42:27;;;;;;;12.73;3.07;;;;;;;;;;2061467;28;20179;-62
2022/01/17 03:43:27;;;;;;;6.80;2.13;;;;;;;;;;2064301;28;20181;-60
2022/01/17 03:44:27;;;;;;;7.80;3.30;;;;;;;;;;2059197;28;20166;-58
2022/01/17 03:45:28;;;;;;;8.90;2.87;;;;;;;;;;2062049;28;20219;-61
2022/01/17 03:46:28;;;;;;;10.70;2.80;;;;;;;;;;2057990;28;20182;-60
2022/01/17 03:47:28;;;;;;;7.90;3.10;;;;;;;;;;2063593;28;20250;-59
2022/01/17 03:48:29;;;;;;;7.30;2.73;;;;;;;;;;2057010;28;20182;-59
2022/01/17 03:49:29;;;;;;;8.57;2.97;;;;;;;;;;2063858;28;20232;-58
2022/01/17 03:50:29;;;;;;;6.40;3.00;;;;;;;;;;2057477;28;20186;-59
2022/01/17 03:51:30;;;;;;;7.07;2.63;;;;;;;;;;2049770;28;20660;-59
2022/01/17 03:52:30;;;;;;;9.60;3.20;;;;;;;;;;2057254;28;20587;-62
2022/01/17 03:53:30;;;;;;;9.03;3.30;;;;;;;;;;2057560;28;20175;-60
2022/01/17 03:54:31;;;;;;;12.73;3.40;;;;;;;;;;2055718;28;20170;-56
2022/01/17 03:55:34;;;;;;;6.50;2.67;;;;;;;;;;2061048;28;20190;-59
2022/01/17 03:56:35;;;;;;;9.47;3.57;;;;;;;;;;2059196;28;20179;-60
2022/01/17 03:57:35;;;;;;;10.10;3.17;;;;;;;;;;2065139;28;20201;-59
2022/01/17 03:58:35;;;;;;;6.07;2.73;;;;;;;;;;2057400;28;20185;-58
2022/01/17 03:59:35;;;;;;;10.57;3.47;;;;;;;;;;2056498;28;20175;-61
2022/01/17 04:00:38;;;;;;;7.73;2.80;;;;;;;;;;2056744;28;20170;-60
2022/01/17 04:01:38;;;;;;;7.57;2.93;;;;;;;;;;2053914;28;20313;-60
2022/01/17 04:02:39;;;;;;;12.30;3.53;;;;;;;;;;2060124;28;20186;-60
2022/01/17 04:03:39;;;;;;;13.17;3.77;;;;;;;;;;2065142;28;20174;-60
2022/01/17 04:04:40;;;;;;;13.37;3.93;;;;;;;;;;2057384;28;20324;-59
2022/01/17 04:05:40;;;;;;;7.83;3.23;;;;;;;;;;2064503;28;20267;-59
2022/01/17 04:06:40;;;;;;;14.10;3.60;;;;;;;;;;2056857;28;20175;-61
2022/01/17 04:07:41;;;;;;;6.57;2.77;;;;;;;;;;2057426;28;20178;-59
2022/01/17 04:08:41;;;;;;;9.87;3.53;;;;;;;;;;2057607;28;20221;-58
2022/01/17 04:09:41;;;;;;;13.53;3.77;;;;;;;;;;2064679;28;20196;-57
2022/01/17 04:10:42;;;;;;;8.90;3.40;;;;;;;;;;2054697;28;20177;-65
2022/01/17 04:11:42;;;;;;;12.10;3.60;;;;;;;;;;2058252;28;20233;-59
2022/01/17 04:12:44;;;;;;;11.20;3.93;;;;;;;;;;2058779;28;20210;-61
2022/01/17 04:13:45;;;;;;;9.17;3.43;;;;;;;;;;2061843;28;20582;-60
2022/01/17 04:14:45;;;;;;;8.30;3.17;;;;;;;;;;2057983;28;20266;-59
2022/01/17 04:15:46;;;;;;;6.17;3.33;;;;;;;;;;2057248;28;20598;-59
2022/01/17 04:16:46;;;;;;;13.20;4.17;;;;;;;;;;2057693;28;20650;-60
2022/01/17 04:17:46;;;;;;;12.80;4.17;;;;;;;;;;2062198;28;20167;-59
2022/01/17 04:18:46;;;;;;;7.80;2.70;;;;;;;;;;2063915;28;20582;-58
2022/01/17 04:19:52;;;;;;;12.83;3.70;;;;;;;;;;2054776;28;20179;-57
2022/01/17 04:20:53;;;;;;;12.33;4.03;;;;;;;;;;2057178;28;20167;-61
2022/01/17 04:21:53;;;;;;;10.53;3.60;;;;;;;;;;2057100;28;20659;-60
2022/01/17 04:22:58;;;;;;;8.03;3.20;;;;;;;;;;2057697;28;20189;-59
2022/01/17 04:23:58;;;;;;;9.40;3.53;;;;;;;;;;2057281;28;20174;-59
2022/01/17 04:24:58;;;;;;;7.70;3.63;;;;;;;;;;2057859;28;20269;-61
2022/01/17 04:25:58;;;;;;;5.07;3.20;;;;;;;;;;2055686;28;20190;-60
2022/01/17 04:26:59;;;;;;;8.03;3.00;;;;;;;;;;2053310;28;20182;-58
2022/01/17 04:28:00;;;;;;;8.90;3.00;;;;;;;;;;2057888;28;20181;-59
2022/01/17 04:29:00;;;;;;;16.87;3.73;;;;;;;;;;2057863;28;20178;-59
2022/01/17 04:30:00;;;;;;;8.47;3.60;;;;;;;;;;2057158;28;20182;-61
2022/01/17 04:31:01;;;;;;;13.83;3.50;;;;;;;;;;2049081;28;20683;-58
2022/01/17 04:32:02;;;;;;;5.03;3.00;;;;;;;;;;2048394;28;20241;-58
2022/01/17 04:33:03;;;;;;;9.33;2.80;;;;;;;;;;2057520;28;20695;-58
2022/01/17 04:34:03;;;;;;;5.07;2.80;;;;;;;;;;2057105;28;20174;-59
2022/01/17 04:35:03;;;;;;;8.20;3.00;;;;;;;;;;2057789;28;20173;-61
2022/01/17 04:36:06;;;;;;;11.37;3.07;;;;;;;;;;2057634;28;20171;-62
2022/01/17 04:37:08;;;;;;;10.80;3.60;;;;;;;;;;2060942;28;20174;-58
2022/01/17 04:38:10;;;;;;;9.83;2.80;;;;;;;;;;2061381;28;20167;-59
2022/01/17 04:39:15;;;;;;;8.87;3.90;;;;;;;;;;2061273;28;20206;-57
2022/01/17 04:40:16;;;;;;;4.57;2.87;;;;;;;;;;2065253;28;20646;-57
2022/01/17 04:41:18;;;;;;;9.13;3.70;;;;;;;;;;2061404;28;20186;-59
2022/01/17 04:42:26;;;;;;;9.20;3.40;;;;;;;;;;2061209;28;20198;-55
2022/01/17 04:45:58;;;;;;;14.37;3.90;;;;;;;;;;2061482;28;20178;-54
2022/01/17 04:46:59;;;;;;;12.20;3.60;;;;;;;;;;2066642;28;20182;-55
2022/01/17 04:47:59;;;;;;;11.03;3.10;;;;;;;;;;2062745;28;20182;-61
2022/01/17 04:48:59;;;;;;;8.23;3.10;;;;;;;;;;2060322;28;20181;-58
2022/01/17 04:50:00;;;;;;;19.00;3.63;;;;;;;;;;2062730;28;20185;-57
2022/01/17 04:51:00;;;;;;;14.70;3.90;;;;;;;;;;2062225;28;20169;-59
2022/01/17 04:52:00;;;;;;;7.77;3.27;;;;;;;;;;2063846;28;20198;-57
2022/01/17 04:53:01;;;;;;;11.37;3.67;;;;;;;;;;2058648;28;20249;-57
2022/01/17 04:54:29;;;;;;;9.40;3.53;;;;;;;;;;2057954;28;20171;-55
2022/01/17 04:55:25;;;;;;;13.73;3.80;;;;;;;;;;2056693;28;20252;-57
2022/01/17 04:56:25;;;;;;;8.23;3.07;;;;;;;;;;2057532;28;20233;-54
2022/01/17 04:57:25;;;;;;;11.80;2.93;;;;;;;;;;2065319;28;20193;-58
2022/01/17 04:58:26;;;;;;;5.90;3.10;;;;;;;;;;2063854;28;20272;-59
2022/01/17 04:59:26;;;;;;;10.00;3.63;;;;;;;;;;2052724;28;20186;-58
2022/01/17 05:00:27;;;;;;;8.43;3.43;;;;;;;;;;2056439;28;20260;-59
2022/01/17 05:01:27;;;;;;;8.57;3.20;;;;;;;;;;2064198;28;20173;-62
2022/01/17 05:02:27;;;;;;;9.80;2.80;;;;;;;;;;2061305;28;20186;-56
2022/01/17 05:03:27;;;;;;;10.80;3.57;;;;;;;;;;2057383;28;20186;-56
2022/01/17 05:04:28;;;;;;;6.33;3.10;;;;;;;;;;2064866;28;20197;-58
2022/01/17 05:05:28;;;;;;;10.33;3.13;;;;;;;;;;2059854;28;20253;-59
2022/01/17 05:06:28;;;;;;;6.97;2.80;;;;;;;;;;2063544;28;20211;-57
2022/01/17 05:07:28;;;;;;;7.07;2.93;;;;;;;;;;2056623;28;20175;-58
2022/01/17 05:08:29;;;;;;;10.87;3.03;;;;;;;;;;2056060;28;20205;-58
2022/01/17 05:09:29;;;;;;;10.30;3.23;;;;;;;;;;2056903;28;20217;-60
2022/01/17 05:10:29;;;;;;;8.43;3.57;;;;;;;;;;2055631;28;20261;-61
2022/01/17 05:11:31;;;;;;;9.20;3.40;;;;;;;;;;2053795;28;20670;-59
2022/01/17 05:12:32;;;;;;;8.77;3.40;;;;;;;;;;2055689;28;20308;-60
2022/01/17 05:13:34;;;;;;;9.57;3.23;;;;;;;;;;2052719;28;20167;-60
2022/01/17 05:14:35;;;;;;;8.73;2.97;;;;;;;;;;2063702;28;20197;-59
2022/01/17 05:15:42;;;;;;;7.40;2.77;;;;;;;;;;2048670;28;20198;-60
2022/01/17 05:16:49;;;;;;;9.07;3.33;;;;;;;;;;2048787;29;20158;-58
2022/01/17 05:18:02;;;;;;;11.60;3.63;;;;;;;;;;2051266;28;20875;-59
2022/01/17 05:20:21;;;;;;;11.20;3.43;;;;;;;;;;2057633;28;20174;-59
2022/01/17 05:21:22;;;;;;;14.13;4.03;;;;;;;;;;2062093;28;20256;-60
2022/01/17 05:22:23;;;;;;;11.20;3.23;;;;;;;;;;2059553;28;20273;-60
2022/01/17 05:23:24;;;;;;;9.17;3.17;;;;;;;;;;2062670;28;20186;-59
2022/01/17 05:24:24;;;;;;;11.90;3.00;;;;;;;;;;2058846;28;20170;-63
2022/01/17 05:25:24;;;;;;;10.27;3.33;;;;;;;;;;2054402;28;20628;-61
2022/01/17 05:26:24;;;;;;;7.80;3.30;;;;;;;;;;2056460;28;20193;-58
2022/01/17 05:27:25;;;;;;;12.97;4.17;;;;;;;;;;2057551;28;20294;-60
2022/01/17 05:28:25;;;;;;;8.87;3.30;;;;;;;;;;2056980;28;20189;-61
2022/01/17 05:29:25;;;;;;;9.00;2.50;;;;;;;;;;2056353;28;20252;-58
2022/01/17 05:30:26;;;;;;;10.90;3.70;;;;;;;;;;2056872;28;20202;-61
2022/01/17 05:31:26;;;;;;;13.60;4.43;;;;;;;;;;2057429;28;20265;-65
2022/01/17 05:32:26;;;;;;;11.30;3.33;;;;;;;;;;2062950;28;20852;-61
2022/01/17 05:33:26;;;;;;;12.30;3.40;;;;;;;;;;2057455;28;20166;-60
2022/01/17 05:34:27;;;;;;;12.47;3.63;;;;;;;;;;2063418;28;20204;-59
2022/01/17 05:35:27;;;;;;;13.43;3.90;;;;;;;;;;2057106;28;20221;-58
2022/01/17 05:36:27;;;;;;;6.73;3.23;;;;;;;;;;2055606;28;20244;-59
2022/01/17 05:37:27;;;;;;;6.13;2.83;;;;;;;;;;2056618;28;20175;-60
2022/01/17 05:38:28;;;;;;;7.50;3.03;;;;;;;;;;2053379;28;20203;-61
2022/01/17 05:39:28;;;;;;;13.00;3.73;;;;;;;;;;2055671;28;20682;-59
2022/01/17 05:40:28;;;;;;;8.93;3.70;;;;;;;;;;2055184;28;20221;-57
2022/01/17 05:41:29;;;;;;;11.93;3.37;;;;;;;;;;2063652;28;20638;-59
2022/01/17 05:42:30;;;;;;;10.83;3.57;;;;;;;;;;2063466;28;20178;-59
2022/01/17 05:43:30;;;;;;;11.60;3.50;;;;;;;;;;2064426;28;20180;-58
2022/01/17 05:44:30;;;;;;;8.97;3.00;;;;;;;;;;2058021;28;20182;-61
2022/01/17 05:45:31;;;;;;;10.57;3.40;;;;;;;;;;2054517;28;20340;-59
2022/01/17 05:46:31;;;;;;;7.77;3.40;;;;;;;;;;2063278;28;20204;-61
2022/01/17 05:47:31;;;;;;;7.07;2.97;;;;;;;;;;2058862;28;20178;-60
2022/01/17 05:48:32;;;;;;;11.23;3.87;;;;;;;;;;2058387;28;20650;-58
2022/01/17 05:49:32;;;;;;;10.53;3.77;;;;;;;;;;2056705;28;20677;-61
2022/01/17 05:50:32;;;;;;;7.13;3.80;;;;;;;;;;2056267;28;20229;-61
2022/01/17 05:51:33;;;;;;;6.33;3.30;;;;;;;;;;2064308;28;20180;-61
2022/01/17 05:52:33;;;;;;;10.33;3.53;;;;;;;;;;2060792;28;20205;-61
2022/01/17 05:53:33;;;;;;;6.43;2.97;;;;;;;;;;2064090;28;20173;-61
2022/01/17 05:54:34;;;;;;;12.00;3.43;;;;;;;;;;2057208;28;20182;-61
2022/01/17 05:55:34;;;;;;;14.90;4.60;;;;;;;;;;2056956;28;20201;-62
2022/01/17 05:56:35;;;;;;;10.57;3.70;;;;;;;;;;2053816;28;20261;-59
2022/01/17 05:57:35;;;;;;;11.83;3.73;;;;;;;;;;2057666;28;20178;-59
2022/01/17 05:58:36;;;;;;;11.90;3.73;;;;;;;;;;2056748;28;20162;-60
2022/01/17 05:59:36;;;;;;;9.47;3.37;;;;;;;;;;2056944;28;20198;-61
2022/01/17 06:00:37;;;;;;;10.07;3.90;;;;;;;;;;2053958;28;20256;-60
2022/01/17 06:01:40;;;;;;;9.33;3.33;;;;;;;;;;2056706;28;20174;-62
2022/01/17 06:02:40;;;;;;;9.90;3.40;;;;;;;;;;2055784;28;20632;-63
2022/01/17 06:03:41;;;;;;;11.33;3.57;;;;;;;;;;2057143;28;20274;-61
2022/01/17 06:04:41;;;;;;;12.07;3.50;;;;;;;;;;2060378;28;20178;-59
2022/01/17 06:05:42;;;;;;;6.53;3.40;;;;;;;;;;2056330;28;20198;-62
2022/01/17 06:06:42;;;;;;;10.77;3.63;;;;;;;;;;2056669;28;20171;-60
2022/01/17 06:07:42;;;;;;;11.73;3.67;;;;;;;;;;2058448;28;20198;-61
2022/01/17 06:08:43;;;;;;;8.23;2.73;;;;;;;;;;2064173;28;20180;-59
2022/01/17 06:09:43;;;;;;;5.23;3.27;;;;;;;;;;2058411;28;20258;-60
2022/01/17 06:10:43;;;;;;;7.57;2.90;;;;;;;;;;2056801;28;20269;-60
2022/01/17 06:11:44;;;;;;;10.63;3.20;;;;;;;;;;2057824;28;20261;-61
2022/01/17 06:12:44;;;;;;;9.70;3.10;;;;;;;;;;2057157;28;20203;-60
2022/01/17 06:13:45;;;;;;;5.40;3.27;;;;;;;;;;2057376;28;20174;-62
2022/01/17 06:14:45;;;;;;;15.17;3.33;;;;;;;;;;2056531;28;20553;-63
2022/01/17 06:15:45;;;;;;;6.17;2.70;;;;;;;;;;2058351;28;20209;-60
2022/01/17 06:16:45;;;;;;;8.77;3.50;;;;;;;;;;2056203;28;20186;-60
2022/01/17 06:17:46;;;;;;;10.70;3.33;;;;;;;;;;2056270;28;20181;-61
2022/01/17 06:18:46;;;;;;;8.60;3.23;;;;;;;;;;2055006;28;20202;-64
2022/01/17 06:19:46;;;;;;;6.83;3.93;;;;;;;;;;2053346;28;20605;-61
2022/01/17 06:20:47;;;;;;;12.43;3.93;;;;;;;;;;2056719;28;20286;-59